Pagrindinis puslapis
METAR-TAF:

METAR-TAF

Oro uostai :

Bankokas, Tailandas

platuma: 13-54-45N, ilguma: 100-36-24E, Aukštis: 4 m

Dabartinis oras

Ataskaita buvo paskelbta 26 minutes, ne 09:00 UTC
Vėjas 8 kt iš Pietų/Pietvakarių
Temperatūra 38°C
Drėgmė 40%
Slėgis 1007 hPa
Matomumas 10 km arba daugiau
Mažai debesys ne aukštis 4000 ft

METAR: VTBD 040900Z 20008KT 9999 FEW040 38/22 Q1007 NOSIG

Laikas: 16:26 (09:26 UTC)

Prognozė

Ataskaita buvo paskelbta 4 valandos ir 26 minutes, ne 05:00 UTC
Prognozė galioja nuo 04 metu 06 UTC su 05 metu 12 UTC
Vėjas 8 kt iš Pietų
Matomumas 10 km arba daugiau
Mažai debesys ne aukštis 2000 ft
Laikinai
nuo 05 metu 02 UTC su 05 metu 08 UTC
Vėjas 10 kt iš Pietų su gūsio iki 25 kt
Matomumas: 4000 m
Mažai debesys ne aukštis 1800 ft, Liūtiniai kamuoliniai debesys.
Išsisklaidę debesys ne aukštis 3000 ft
Su prošvaistėmis ne aukštis 10000 ft
perkūnija, lietus

TAF: VTBD 040500Z 0406/0512 18008KT 9999 FEW020 TEMPO 0502/0508 18010G25KT 4000 TSRA FEW018CB SCT030 BKN100

Orai ataskaitas ir orų prognozės (METAR, TAF).

turimą stotys yra geltonos ir raudonos taškus žemėlapyje.

Perkelti pele per norėdami pamatyti stoties vardą.

Tada spustelėkite, norėdami matyti oro stebėjimo ir prognozės.

Norėdami pakeisti žemėlapį: spustelėkite ant žalios mygtukų su juodo kryžiaus žemyn,; žalią mygtuką su brūkšneliu, jei norite nutolinti; arba žalių rodyklių gretimoms žemėlapius.


METAR-TAF: